Terminal Aerodrome Forecast
Issued by NWS Grand Forks, ND

Home | Current Version | Previous Version | Text Only | Print | Product List | Glossary Off
Versions: 1 2 3 4 5 6 7 8 9 10 11 12 13 14 15 16 17 18 19 20 21 22 23

000
FTUS43 KFGF 180300 AAB
TAFGFK
TAF AMD
KGFK 180336Z 1804/1824 15008KT P6SM -TSRA BKN025CB
     FM180700 VRB06KT P6SM BKN015
     FM181500 30008KT P6SM BKN040
     FM181900 33010KT P6SM VCTS BKN040CB=

USA.gov is the U.S. government's official web portal to all federal, state and local government web resources and services.